createdAt,value
2022-12-08T00:00:22.360Z,10.80
2022-12-08T00:02:51.863Z,6.13
2022-12-08T00:05:33.872Z,6.80
2022-12-08T00:08:15.670Z,10.37
2022-12-08T00:10:49.702Z,9.45
2022-12-08T00:13:20.626Z,9.05
2022-12-08T00:15:49.882Z,12.13
2022-12-08T00:18:19.414Z,12.65
2022-12-08T00:20:48.824Z,9.27
2022-12-08T00:23:18.281Z,13.02
2022-12-08T00:25:47.557Z,13.07
2022-12-08T00:28:16.814Z,12.38
2022-12-08T00:30:46.106Z,11.60
2022-12-08T00:33:15.412Z,13.40
2022-12-08T00:35:44.657Z,16.88
2022-12-08T00:38:14.220Z,14.80
2022-12-08T00:40:47.267Z,13.05
2022-12-08T00:43:17.035Z,16.17
2022-12-08T00:45:46.390Z,20.02
2022-12-08T00:48:15.754Z,18.10
2022-12-08T00:50:45.062Z,19.42
2022-12-08T00:53:14.367Z,15.07
2022-12-08T00:55:43.646Z,19.58
2022-12-08T00:58:12.901Z,16.85
2022-12-08T01:00:46.194Z,17.48
2022-12-08T01:03:16.447Z,20.05
2022-12-08T01:05:45.753Z,21.98
2022-12-08T01:08:15.263Z,22.35
2022-12-08T01:10:45.199Z,21.45
2022-12-08T01:13:14.445Z,19.52
2022-12-08T01:15:43.676Z,21.20
2022-12-08T01:18:12.910Z,22.92
2022-12-08T01:20:42.119Z,20.23
2022-12-08T01:23:11.317Z,25.95
2022-12-08T01:25:40.706Z,27.02
2022-12-08T01:28:09.944Z,25.83
2022-12-08T01:30:41.233Z,28.70
2022-12-08T01:33:10.553Z,22.67
2022-12-08T01:35:40.471Z,26.38
2022-12-08T01:38:09.764Z,24.35
2022-12-08T01:40:38.982Z,25.83
2022-12-08T01:43:08.250Z,24.90
2022-12-08T01:45:37.461Z,27.95
2022-12-08T01:48:09.463Z,32.00
2022-12-08T01:50:38.973Z,30.98
2022-12-08T01:53:29.481Z,25.77
2022-12-08T01:56:01.158Z,25.38
2022-12-08T01:58:41.710Z,24.48
2022-12-08T02:01:11.352Z,30.05
2022-12-08T02:03:52.805Z,26.85
2022-12-08T02:06:22.474Z,27.02
2022-12-08T02:08:55.146Z,30.45
2022-12-08T02:11:24.766Z,27.00
2022-12-08T02:13:55.553Z,27.77
2022-12-08T02:16:38.242Z,24.98
2022-12-08T02:21:59.398Z,27.75
2022-12-08T02:24:28.685Z,31.05
2022-12-08T02:27:17.448Z,35.17
2022-12-08T02:29:46.627Z,25.35
2022-12-08T02:32:31.243Z,24.85
2022-12-08T02:35:03.849Z,27.48
2022-12-08T02:37:36.403Z,24.00
2022-12-08T02:40:05.810Z,25.05
2022-12-08T02:42:35.232Z,30.00
2022-12-08T02:45:30.821Z,25.08
2022-12-08T02:48:01.368Z,25.38
2022-12-08T02:50:31.247Z,24.42
2022-12-08T02:53:01.768Z,26.92
2022-12-08T02:55:34.706Z,23.73
2022-12-08T02:58:03.989Z,26.20
2022-12-08T03:00:40.866Z,24.00
2022-12-08T03:03:27.461Z,25.02
2022-12-08T03:06:15.619Z,20.70
2022-12-08T03:08:57.701Z,22.63
2022-12-08T03:11:26.943Z,23.65
2022-12-08T03:13:58.283Z,27.42
2022-12-08T03:16:28.947Z,27.45
2022-12-08T03:19:18.661Z,21.98
2022-12-08T03:21:49.845Z,23.25
2022-12-08T03:24:20.152Z,23.88
2022-12-08T03:26:52.576Z,25.08
2022-12-08T03:31:58.942Z,25.10
2022-12-08T03:34:29.707Z,20.33
2022-12-08T03:36:59.004Z,21.27
2022-12-08T03:39:28.254Z,19.40
2022-12-08T03:41:57.561Z,20.52
2022-12-08T03:44:26.788Z,17.83
2022-12-08T03:46:56.150Z,19.58
2022-12-08T03:49:25.483Z,19.45
2022-12-08T03:51:54.732Z,18.98
2022-12-08T03:54:24.310Z,18.48
2022-12-08T03:56:53.594Z,17.70
2022-12-08T03:59:22.792Z,17.02
2022-12-08T04:01:52.039Z,15.18
2022-12-08T04:04:21.321Z,14.77
2022-12-08T04:06:52.346Z,14.50
2022-12-08T04:09:21.720Z,11.15
2022-12-08T04:11:51.064Z,10.68
2022-12-08T04:14:20.427Z,12.57
2022-12-08T04:16:49.713Z,10.52
2022-12-08T04:19:18.924Z,13.00
2022-12-08T04:21:48.162Z,8.75
2022-12-08T04:24:17.472Z,11.68
2022-12-08T04:26:46.703Z,9.35
2022-12-08T04:29:15.955Z,8.57
2022-12-08T04:31:45.256Z,11.50
2022-12-08T04:34:14.626Z,8.40
2022-12-08T04:36:43.938Z,10.88
2022-12-08T04:39:13.164Z,10.90
2022-12-08T04:41:42.416Z,9.55
2022-12-08T04:44:11.657Z,8.75
2022-12-08T04:46:43.652Z,13.45
2022-12-08T04:49:13.264Z,11.82
2022-12-08T04:51:42.453Z,9.40
2022-12-08T04:54:11.669Z,11.88
2022-12-08T04:56:40.945Z,10.93
2022-12-08T04:59:10.190Z,8.80
2022-12-08T05:01:39.523Z,14.85
2022-12-08T05:04:08.847Z,11.30
2022-12-08T05:06:38.127Z,13.50
2022-12-08T05:09:07.548Z,13.77
2022-12-08T05:11:36.796Z,12.52
2022-12-08T05:14:06.033Z,12.25
2022-12-08T05:16:35.360Z,10.45
2022-12-08T05:19:04.626Z,15.52
2022-12-08T05:21:33.851Z,15.57
2022-12-08T05:24:03.221Z,11.23
2022-12-08T05:26:32.672Z,11.73
2022-12-08T05:29:01.911Z,10.93
2022-12-08T05:31:31.370Z,12.52
2022-12-08T05:34:03.168Z,10.32
2022-12-08T05:36:32.961Z,9.75
2022-12-08T05:39:02.226Z,9.25
2022-12-08T05:41:31.473Z,8.18
2022-12-08T05:44:00.724Z,10.43
2022-12-08T05:46:30.562Z,9.45
2022-12-08T05:49:01.677Z,13.60
2022-12-08T05:51:31.034Z,12.25
2022-12-08T05:54:00.780Z,12.25
2022-12-08T05:56:30.027Z,12.27
2022-12-08T05:58:59.259Z,14.00
2022-12-08T06:01:30.268Z,12.68
2022-12-08T06:04:03.313Z,14.07
2022-12-08T06:06:32.941Z,13.88
2022-12-08T06:09:02.202Z,14.73
2022-12-08T06:11:32.754Z,15.52
2022-12-08T06:14:03.260Z,15.27
2022-12-08T06:16:32.874Z,21.33
2022-12-08T06:19:02.142Z,16.55
2022-12-08T06:21:31.397Z,18.85
2022-12-08T06:24:00.681Z,17.20
2022-12-08T06:26:29.921Z,18.50
2022-12-08T06:29:00.725Z,13.82
2022-12-08T06:31:30.346Z,13.93
2022-12-08T06:33:59.610Z,16.48
2022-12-08T06:36:29.450Z,11.88
2022-12-08T06:38:59.056Z,12.20
2022-12-08T06:41:28.529Z,13.43
2022-12-08T06:44:00.917Z,10.63
2022-12-08T06:46:30.185Z,12.48
2022-12-08T06:48:59.428Z,13.23
2022-12-08T06:51:28.648Z,9.40
2022-12-08T06:53:57.842Z,10.13
2022-12-08T06:56:28.116Z,10.18
2022-12-08T06:58:57.331Z,11.63
2022-12-08T07:01:26.661Z,8.95
2022-12-08T07:03:56.050Z,7.22
2022-12-08T07:06:26.601Z,6.00
2022-12-08T07:08:55.782Z,8.50
2022-12-08T07:11:25.165Z,8.20
2022-12-08T07:13:54.891Z,8.32
2022-12-08T07:16:24.549Z,7.82
2022-12-08T07:18:54.304Z,6.90
2022-12-08T07:21:24.089Z,9.00
2022-12-08T07:23:57.613Z,8.93
2022-12-08T07:26:28.234Z,6.93
2022-12-08T07:28:57.969Z,6.70
2022-12-08T07:31:28.679Z,7.47
2022-12-08T07:33:59.417Z,7.93
2022-12-08T07:36:29.023Z,8.75
2022-12-08T07:38:58.842Z,7.40
2022-12-08T07:41:28.966Z,5.07
2022-12-08T07:44:02.122Z,5.78
2022-12-08T07:46:40.493Z,9.32
2022-12-08T07:51:52.163Z,7.15
2022-12-08T07:54:22.236Z,6.65
2022-12-08T07:56:52.220Z,6.47
2022-12-08T07:59:22.443Z,9.40
2022-12-08T08:02:13.099Z,7.32
2022-12-08T08:04:42.795Z,3.45
2022-12-08T08:07:13.492Z,3.63
2022-12-08T08:09:43.688Z,4.85
2022-12-08T08:15:04.638Z,4.90
2022-12-08T08:17:35.076Z,4.20
2022-12-08T08:20:09.085Z,4.22
2022-12-08T08:22:54.679Z,3.53
2022-12-08T08:25:37.592Z,5.80
2022-12-08T08:28:09.882Z,5.18
2022-12-08T08:33:09.424Z,4.15
2022-12-08T08:35:39.793Z,3.75
2022-12-08T08:38:09.623Z,5.68
2022-12-08T08:40:39.302Z,5.65
2022-12-08T08:43:09.371Z,4.45
2022-12-08T08:45:39.268Z,5.07
2022-12-08T08:48:09.106Z,9.70
2022-12-08T08:50:38.444Z,5.72
2022-12-08T08:53:08.389Z,4.85
2022-12-08T08:55:37.842Z,4.97
2022-12-08T08:58:07.281Z,3.88
2022-12-08T09:00:37.145Z,6.60
2022-12-08T09:03:06.468Z,7.05
2022-12-08T09:05:35.740Z,4.38
2022-12-08T09:08:04.988Z,5.53
2022-12-08T09:10:34.350Z,7.50
2022-12-08T09:13:03.539Z,4.82
2022-12-08T09:15:32.918Z,6.38
2022-12-08T09:18:02.205Z,7.25
2022-12-08T09:20:31.432Z,9.10
2022-12-08T09:23:00.694Z,6.85
2022-12-08T09:25:30.696Z,5.72
2022-12-08T09:27:59.988Z,5.88
2022-12-08T09:30:29.393Z,7.90
2022-12-08T09:32:58.635Z,6.25
2022-12-08T09:35:28.037Z,6.35
2022-12-08T09:37:57.302Z,5.53
2022-12-08T09:40:26.865Z,5.85
2022-12-08T09:42:58.872Z,5.35
2022-12-08T09:45:30.982Z,7.15
2022-12-08T09:48:00.297Z,7.18
2022-12-08T09:50:48.500Z,8.98
2022-12-08T09:53:21.332Z,5.32
2022-12-08T09:56:08.470Z,4.55
2022-12-08T09:58:51.948Z,3.63
2022-12-08T10:01:22.380Z,5.07
2022-12-08T10:03:52.157Z,3.10
2022-12-08T10:06:34.485Z,2.38
2022-12-08T10:09:03.697Z,2.58
2022-12-08T10:11:43.520Z,3.15
2022-12-08T10:14:15.516Z,4.45
2022-12-08T10:16:47.340Z,3.28
2022-12-08T10:19:20.112Z,2.63
2022-12-08T10:21:49.418Z,3.42
2022-12-08T10:24:26.059Z,4.40
2022-12-08T10:26:56.279Z,3.20
2022-12-08T10:29:25.640Z,3.65
2022-12-08T10:31:55.134Z,6.38
2022-12-08T10:34:26.142Z,4.53
2022-12-08T10:36:56.403Z,3.17
2022-12-08T10:39:37.952Z,4.22
2022-12-08T10:42:16.349Z,2.33
2022-12-08T10:45:01.789Z,2.55
2022-12-08T10:47:32.120Z,3.40
2022-12-08T10:50:21.029Z,2.83
2022-12-08T10:52:58.641Z,2.70
2022-12-08T10:55:28.274Z,3.17
2022-12-08T10:57:57.592Z,2.17
2022-12-08T11:00:28.616Z,2.28
2022-12-08T11:02:58.111Z,2.50
2022-12-08T11:05:29.465Z,2.28
2022-12-08T11:07:59.260Z,3.00
2022-12-08T11:10:31.909Z,2.90
2022-12-08T11:13:02.769Z,3.92
2022-12-08T11:15:36.493Z,2.13
2022-12-08T11:18:12.029Z,3.20
2022-12-08T11:20:42.496Z,5.32
2022-12-08T11:23:21.835Z,3.08
2022-12-08T11:25:52.180Z,3.47
2022-12-08T11:28:24.845Z,3.85
2022-12-08T11:31:00.180Z,5.10
2022-12-08T11:33:30.320Z,3.58
2022-12-08T11:36:03.117Z,5.40
2022-12-08T11:38:32.707Z,5.93
2022-12-08T11:41:14.015Z,5.68
2022-12-08T11:43:57.210Z,5.07
2022-12-08T11:46:28.547Z,5.43
2022-12-08T11:49:06.750Z,5.47
2022-12-08T11:51:38.951Z,5.57
2022-12-08T11:54:14.020Z,9.43
2022-12-08T11:56:46.406Z,6.53
2022-12-08T12:01:44.881Z,5.95
2022-12-08T12:04:18.830Z,5.95
2022-12-08T12:07:06.865Z,6.65
2022-12-08T12:09:39.418Z,7.35
2022-12-08T12:12:20.669Z,7.50
2022-12-08T12:15:11.351Z,4.40
2022-12-08T12:17:46.653Z,6.00
2022-12-08T12:20:19.448Z,7.55
2022-12-08T12:22:51.329Z,7.85
2022-12-08T12:25:25.832Z,6.03
2022-12-08T12:27:58.915Z,5.75
2022-12-08T12:30:29.260Z,6.45
2022-12-08T12:33:03.613Z,10.45
2022-12-08T12:35:43.321Z,5.30
2022-12-08T12:38:51.172Z,5.90
2022-12-08T12:41:25.897Z,5.95
2022-12-08T12:44:10.251Z,7.25
2022-12-08T12:46:39.534Z,4.50
2022-12-08T12:49:27.742Z,5.82
2022-12-08T12:51:57.651Z,5.00
2022-12-08T12:54:28.185Z,4.57
2022-12-08T12:56:58.386Z,5.03
2022-12-08T12:59:36.801Z,4.70
2022-12-08T13:02:06.182Z,7.97
2022-12-08T13:04:38.236Z,12.85
2022-12-08T13:07:07.756Z,16.13
2022-12-08T13:09:41.734Z,14.38
2022-12-08T13:12:15.162Z,13.25
2022-12-08T13:14:51.074Z,17.27
2022-12-08T13:17:26.508Z,14.75
2022-12-08T13:20:00.130Z,13.18
2022-12-08T13:22:47.817Z,18.27
2022-12-08T13:25:37.076Z,14.20
2022-12-08T13:28:18.685Z,13.15
2022-12-08T13:31:01.237Z,14.20
2022-12-08T13:36:04.626Z,13.98
2022-12-08T13:38:36.352Z,14.30
2022-12-08T13:41:09.060Z,12.32
2022-12-08T13:43:52.458Z,12.02
2022-12-08T13:51:10.537Z,12.60
2022-12-08T13:54:09.833Z,15.80
2022-12-08T13:56:51.441Z,14.70
2022-12-08T13:58:19.741Z,14.20
2022-12-08T14:01:04.407Z,12.52
2022-12-08T14:03:34.030Z,12.95
2022-12-08T14:06:13.366Z,12.75
2022-12-08T14:09:02.596Z,17.23
2022-12-08T14:11:38.738Z,13.93
2022-12-08T14:14:10.627Z,13.75
2022-12-08T14:16:44.307Z,12.27
2022-12-08T14:19:24.495Z,20.20
2022-12-08T14:21:56.275Z,14.27
2022-12-08T14:24:26.840Z,14.55
2022-12-08T14:26:57.180Z,14.70
2022-12-08T14:29:39.615Z,16.38
2022-12-08T14:32:21.144Z,14.48
2022-12-08T14:34:57.643Z,13.98
2022-12-08T14:37:28.634Z,14.63
2022-12-08T14:40:02.175Z,12.32
2022-12-08T14:42:32.360Z,16.75
2022-12-08T14:45:03.163Z,13.93
2022-12-08T14:47:34.033Z,13.85
2022-12-08T14:50:04.339Z,15.10
2022-12-08T14:52:33.920Z,14.13
2022-12-08T14:55:03.197Z,16.75
2022-12-08T14:57:36.418Z,15.00
2022-12-08T15:00:13.828Z,20.42
2022-12-08T15:02:46.554Z,19.67
2022-12-08T15:05:18.781Z,17.35
2022-12-08T15:07:53.133Z,15.00
2022-12-08T15:10:22.751Z,16.13
2022-12-08T15:13:04.761Z,18.95
2022-12-08T15:15:35.215Z,14.88
2022-12-08T15:18:07.399Z,13.55
2022-12-08T15:20:43.023Z,13.70
2022-12-08T15:23:21.479Z,12.48
2022-12-08T15:25:51.108Z,12.57
2022-12-08T15:28:25.319Z,12.82
2022-12-08T15:30:58.918Z,9.00
2022-12-08T15:33:28.371Z,10.20
2022-12-08T15:35:57.628Z,11.55
2022-12-08T15:38:28.810Z,9.23
2022-12-08T15:40:58.879Z,8.80
2022-12-08T15:43:28.222Z,9.63
2022-12-08T15:46:00.117Z,10.27
2022-12-08T15:48:31.462Z,9.30
2022-12-08T15:51:01.219Z,9.98
2022-12-08T15:53:30.597Z,11.77
2022-12-08T15:58:54.031Z,10.70
2022-12-08T16:01:24.547Z,28.70
2022-12-08T16:07:19.822Z,23.77
2022-12-08T16:09:33.313Z,14.10
2022-12-08T16:12:15.491Z,13.02
2022-12-08T16:17:35.079Z,17.35
2022-12-08T16:20:05.660Z,13.20
2022-12-08T16:25:25.033Z,12.98
2022-12-08T16:28:05.447Z,13.07
2022-12-08T16:30:37.941Z,11.57
2022-12-08T16:33:07.379Z,14.20
2022-12-08T16:35:36.628Z,11.65
2022-12-08T16:38:06.393Z,9.40
2022-12-08T16:40:55.619Z,9.95
2022-12-08T16:43:22.260Z,9.65
2022-12-08T16:45:51.570Z,12.00
2022-12-08T16:48:22.508Z,12.15
2022-12-08T16:50:51.846Z,16.13
2022-12-08T16:53:21.084Z,11.57
2022-12-08T16:55:51.218Z,14.52
2022-12-08T16:58:22.038Z,12.23
2022-12-08T17:00:51.303Z,14.65
2022-12-08T17:03:20.738Z,11.55
2022-12-08T17:05:50.029Z,16.77
2022-12-08T17:08:19.325Z,13.32
2022-12-08T17:11:07.249Z,10.73
2022-12-08T17:13:40.483Z,10.60
2022-12-08T17:16:14.153Z,11.02
2022-12-08T17:18:43.456Z,13.27
2022-12-08T17:21:13.921Z,10.68
2022-12-08T17:23:43.591Z,10.00
2022-12-08T17:26:13.020Z,8.45
2022-12-08T17:31:33.031Z,10.10
2022-12-08T17:34:03.363Z,11.18
2022-12-08T17:36:32.654Z,12.55
2022-12-08T17:39:02.562Z,13.50
2022-12-08T17:41:32.176Z,10.77
2022-12-08T17:44:01.376Z,9.93
2022-12-08T17:46:30.633Z,10.15
2022-12-08T17:48:59.871Z,9.73
2022-12-08T17:51:29.088Z,10.35
2022-12-08T17:53:58.334Z,9.85
2022-12-08T17:56:27.536Z,8.73
2022-12-08T17:58:56.887Z,10.68
2022-12-08T18:01:27.656Z,13.52
2022-12-08T18:03:56.910Z,11.57
2022-12-08T18:06:30.980Z,13.48
2022-12-08T18:09:00.995Z,14.30
2022-12-08T18:11:31.148Z,14.07
2022-12-08T18:14:00.487Z,12.85
2022-12-08T18:16:30.532Z,16.95
2022-12-08T18:18:59.817Z,15.55
2022-12-08T18:21:29.063Z,15.25
2022-12-08T18:23:58.352Z,18.52
2022-12-08T18:26:27.607Z,14.05
2022-12-08T18:28:56.916Z,14.45
2022-12-08T18:31:26.948Z,15.85
2022-12-08T18:33:56.355Z,17.60
2022-12-08T18:36:26.602Z,19.90
2022-12-08T18:38:56.386Z,23.45
2022-12-08T18:41:26.668Z,19.88
2022-12-08T18:43:57.147Z,18.48
2022-12-08T18:46:27.146Z,20.15
2022-12-08T18:48:56.550Z,24.98
2022-12-08T18:51:26.708Z,20.92
2022-12-08T18:53:56.019Z,17.90
2022-12-08T18:56:27.970Z,20.67
2022-12-08T18:59:02.914Z,21.85
2022-12-08T19:01:33.841Z,17.48
2022-12-08T19:04:27.236Z,21.33
2022-12-08T19:06:54.177Z,18.90
2022-12-08T19:09:24.560Z,18.05
2022-12-08T19:11:53.781Z,19.67
2022-12-08T19:14:27.890Z,21.52
2022-12-08T19:16:57.660Z,22.25
2022-12-08T19:19:27.351Z,21.92
2022-12-08T19:21:56.597Z,30.60
2022-12-08T19:24:26.062Z,28.23
2022-12-08T19:26:55.339Z,31.35
2022-12-08T19:29:24.559Z,28.38
2022-12-08T19:31:53.790Z,28.17
2022-12-08T19:34:23.254Z,27.33
2022-12-08T19:36:52.513Z,31.10
2022-12-08T19:39:36.108Z,26.98
2022-12-08T19:42:18.223Z,29.15
2022-12-08T19:44:56.613Z,26.38
2022-12-08T19:47:27.241Z,25.17
2022-12-08T19:50:17.408Z,24.08
2022-12-08T19:52:46.746Z,23.58
2022-12-08T19:55:16.119Z,22.45
2022-12-08T19:57:45.457Z,21.48
2022-12-08T20:00:15.128Z,25.10
2022-12-08T20:02:44.804Z,23.17
2022-12-08T20:05:14.887Z,26.75
2022-12-08T20:07:44.217Z,25.05
2022-12-08T20:10:24.529Z,23.15
2022-12-08T20:13:13.798Z,23.85
2022-12-08T20:15:43.228Z,23.48
2022-12-08T20:18:12.855Z,21.50
2022-12-08T20:20:42.239Z,25.42
2022-12-08T20:23:12.009Z,29.92
2022-12-08T20:25:42.286Z,24.80
2022-12-08T20:28:11.640Z,24.50
2022-12-08T20:30:41.504Z,22.58
2022-12-08T20:33:11.069Z,24.23
2022-12-08T20:35:40.352Z,27.48
2022-12-08T20:38:09.656Z,23.60
2022-12-08T20:40:38.946Z,27.58
2022-12-08T20:43:08.164Z,29.60
2022-12-08T20:45:37.464Z,27.02
2022-12-08T20:48:06.996Z,26.52
2022-12-08T20:50:36.463Z,23.58
2022-12-08T20:53:05.699Z,30.77
2022-12-08T20:55:35.437Z,21.88
2022-12-08T20:58:04.928Z,22.15
2022-12-08T21:00:34.424Z,24.58
2022-12-08T21:03:03.934Z,26.48
2022-12-08T21:05:35.618Z,26.75
2022-12-08T21:08:05.091Z,22.88
2022-12-08T21:10:40.689Z,24.50
2022-12-08T21:13:13.000Z,24.88
2022-12-08T21:15:42.653Z,23.95
2022-12-08T21:18:12.646Z,23.25
2022-12-08T21:20:42.030Z,25.23
2022-12-08T21:23:11.412Z,22.55
2022-12-08T21:25:44.579Z,24.88
2022-12-08T21:28:15.379Z,27.23
2022-12-08T21:30:45.004Z,34.28
2022-12-08T21:33:14.554Z,31.75
2022-12-08T21:35:44.054Z,28.45
2022-12-08T21:38:13.382Z,26.00
2022-12-08T21:40:42.985Z,28.55
2022-12-08T21:43:12.516Z,25.15
2022-12-08T21:45:43.303Z,28.65
2022-12-08T21:48:12.587Z,26.55
2022-12-08T21:50:42.357Z,29.88
2022-12-08T21:53:12.565Z,28.70
2022-12-08T21:55:42.161Z,24.50
2022-12-08T21:58:11.571Z,27.75
2022-12-08T22:00:40.975Z,25.75
2022-12-08T22:03:14.985Z,30.73
2022-12-08T22:05:44.714Z,27.08
2022-12-08T22:08:14.313Z,32.65
2022-12-08T22:10:43.830Z,29.27
2022-12-08T22:13:13.203Z,20.88
2022-12-08T22:15:42.616Z,29.23
2022-12-08T22:18:12.025Z,23.98
2022-12-08T22:20:44.433Z,25.50
2022-12-08T22:25:42.918Z,22.73
2022-12-08T22:28:12.214Z,24.58
2022-12-08T22:30:42.204Z,25.00
2022-12-08T22:33:11.692Z,21.60
2022-12-08T22:35:40.937Z,27.20
2022-12-08T22:38:10.160Z,26.17
2022-12-08T22:40:42.375Z,24.67
2022-12-08T22:43:11.674Z,25.70
2022-12-08T22:45:41.006Z,25.90
2022-12-08T22:48:10.637Z,22.65
2022-12-08T22:50:40.110Z,24.75
2022-12-08T22:53:09.386Z,24.58
2022-12-08T22:55:42.953Z,23.00
2022-12-08T22:58:13.084Z,24.55
2022-12-08T23:00:42.671Z,24.38
2022-12-08T23:03:11.968Z,22.95
2022-12-08T23:05:42.403Z,21.10
2022-12-08T23:08:12.569Z,24.45
2022-12-08T23:10:42.390Z,22.48
2022-12-08T23:13:11.695Z,22.55
2022-12-08T23:15:41.365Z,22.80
2022-12-08T23:18:10.981Z,22.52
2022-12-08T23:20:40.358Z,26.67
2022-12-08T23:23:09.835Z,22.75
2022-12-08T23:25:42.389Z,25.45
2022-12-08T23:28:11.882Z,26.02
2022-12-08T23:30:44.503Z,24.55
2022-12-08T23:33:13.922Z,28.15
2022-12-08T23:35:43.563Z,24.83
2022-12-08T23:38:13.177Z,27.05
2022-12-08T23:40:42.432Z,24.40
2022-12-08T23:43:11.642Z,24.80
2022-12-08T23:45:41.139Z,30.05
2022-12-08T23:48:10.441Z,27.75
2022-12-08T23:50:39.646Z,26.25
2022-12-08T23:53:09.070Z,29.67
2022-12-08T23:55:38.447Z,29.00
2022-12-08T23:58:07.840Z,30.05
